createdAt,value
2023-04-28T00:02:04.693Z,5.40
2023-04-28T00:04:50.510Z,5.43
2023-04-28T00:07:37.425Z,5.41
2023-04-28T00:10:23.334Z,5.44
2023-04-28T00:13:10.963Z,5.44
2023-04-28T00:15:57.129Z,5.44
2023-04-28T00:18:42.872Z,5.47
2023-04-28T00:21:29.020Z,5.52
2023-04-28T00:24:14.951Z,5.54
2023-04-28T00:27:01.350Z,5.55
2023-04-28T00:29:48.674Z,5.58
2023-04-28T00:32:34.501Z,5.62
2023-04-28T00:35:21.012Z,5.64
2023-04-28T00:38:06.908Z,5.67
2023-04-28T00:40:52.676Z,5.70
2023-04-28T00:43:45.264Z,5.71
2023-04-28T00:46:32.867Z,5.74
2023-04-28T00:49:18.912Z,5.76
2023-04-28T00:52:05.480Z,5.79
2023-04-28T00:54:51.713Z,5.79
2023-04-28T00:57:37.643Z,5.81
2023-04-28T01:00:23.767Z,5.82
2023-04-28T01:03:11.208Z,5.85
2023-04-28T01:05:57.456Z,5.87
2023-04-28T01:08:44.060Z,5.87
2023-04-28T01:11:34.817Z,5.93
2023-04-28T01:14:26.710Z,5.96
2023-04-28T01:17:12.384Z,6.00
2023-04-28T01:20:01.083Z,6.04
2023-04-28T01:22:47.096Z,6.10
2023-04-28T01:25:34.404Z,6.12
2023-04-28T01:28:20.249Z,6.13
2023-04-28T01:31:06.658Z,6.15
2023-04-28T01:33:52.513Z,6.14
2023-04-28T01:36:38.341Z,6.16
2023-04-28T01:39:24.877Z,6.17
2023-04-28T01:42:11.883Z,6.19
2023-04-28T01:44:57.702Z,6.21
2023-04-28T01:47:43.620Z,6.22
2023-04-28T01:50:29.279Z,6.20
2023-04-28T01:53:15.614Z,6.23
2023-04-28T01:56:02.438Z,6.25
2023-04-28T01:58:49.465Z,6.26
2023-04-28T02:01:35.795Z,6.23
2023-04-28T02:04:22.357Z,6.23
2023-04-28T02:07:08.228Z,6.25
2023-04-28T02:09:54.023Z,6.21
2023-04-28T02:12:41.573Z,6.21
2023-04-28T02:15:28.731Z,6.20
2023-04-28T02:18:14.469Z,6.23
2023-04-28T02:21:00.209Z,6.19
2023-04-28T02:23:46.462Z,6.21
2023-04-28T02:26:32.438Z,6.21
2023-04-28T02:29:18.373Z,6.20
2023-04-28T02:32:05.634Z,6.22
2023-04-28T02:34:53.708Z,6.25
2023-04-28T02:37:39.335Z,6.25
2023-04-28T02:40:25.298Z,6.25
2023-04-28T02:43:11.462Z,6.28
2023-04-28T02:45:57.234Z,6.24
2023-04-28T02:48:44.373Z,6.27
2023-04-28T02:51:32.051Z,6.28
2023-04-28T02:54:27.141Z,6.27
2023-04-28T02:57:13.644Z,6.26
2023-04-28T02:59:59.264Z,6.24
2023-04-28T03:02:49.769Z,6.24
2023-04-28T03:05:37.346Z,6.23
2023-04-28T03:08:23.769Z,6.22
2023-04-28T03:11:09.442Z,6.25
2023-04-28T03:13:55.877Z,6.19
2023-04-28T03:16:41.626Z,6.15
2023-04-28T03:19:27.883Z,6.13
2023-04-28T03:22:14.994Z,6.16
2023-04-28T03:25:00.944Z,6.11
2023-04-28T03:27:48.485Z,6.09
2023-04-28T03:30:34.383Z,6.12
2023-04-28T03:33:20.235Z,6.08
2023-04-28T03:36:06.522Z,6.08
2023-04-28T03:38:53.786Z,6.07
2023-04-28T03:41:39.454Z,6.06
2023-04-28T03:44:44.120Z,6.05
2023-04-28T03:47:29.957Z,6.09
2023-04-28T03:50:16.170Z,6.13
2023-04-28T03:53:02.080Z,6.14
2023-04-28T03:55:49.933Z,6.14
2023-04-28T03:58:37.356Z,6.14
2023-04-28T04:01:23.573Z,6.15
2023-04-28T04:04:10.249Z,6.13
2023-04-28T04:06:56.276Z,6.16
2023-04-28T04:09:43.016Z,6.16
2023-04-28T04:12:30.302Z,6.17
2023-04-28T04:15:16.047Z,6.22
2023-04-28T04:18:03.376Z,6.24
2023-04-28T04:21:00.330Z,6.28
2023-04-28T04:23:47.230Z,6.25
2023-04-28T04:26:32.956Z,6.27
2023-04-28T04:29:21.009Z,6.29
2023-04-28T04:32:06.989Z,6.28
2023-04-28T04:34:53.125Z,6.33
2023-04-28T04:37:38.939Z,6.35
2023-04-28T04:40:24.975Z,6.39
2023-04-28T04:43:10.647Z,6.43
2023-04-28T04:46:04.875Z,6.45
2023-04-28T04:48:52.053Z,6.50
2023-04-28T04:51:38.988Z,6.56
2023-04-28T04:54:25.935Z,6.58
2023-04-28T04:57:11.877Z,6.60
2023-04-28T05:00:22.205Z,6.69
2023-04-28T05:03:10.156Z,6.74
2023-04-28T05:05:58.076Z,6.81
2023-04-28T05:08:59.189Z,6.86
2023-04-28T05:11:46.170Z,6.92
2023-04-28T05:14:31.925Z,6.94
2023-04-28T05:17:17.666Z,7.00
2023-04-28T05:20:05.230Z,7.09
2023-04-28T05:22:51.199Z,7.18
2023-04-28T05:25:37.350Z,7.21
2023-04-28T05:28:23.194Z,7.29
2023-04-28T05:31:12.512Z,7.34
2023-04-28T05:33:58.828Z,7.43
2023-04-28T05:36:46.128Z,7.45
2023-04-28T05:39:32.595Z,7.49
2023-04-28T05:42:21.714Z,7.54
2023-04-28T05:45:08.026Z,7.62
2023-04-28T05:47:54.655Z,7.69
2023-04-28T05:50:41.006Z,7.77
2023-04-28T05:53:28.151Z,7.87
2023-04-28T05:56:14.418Z,8.02
2023-04-28T05:59:03.900Z,8.07
2023-04-28T06:01:50.711Z,8.14
2023-04-28T06:04:36.959Z,8.22
2023-04-28T06:07:23.092Z,8.38
2023-04-28T06:10:11.505Z,8.41
2023-04-28T06:12:57.745Z,8.59
2023-04-28T06:15:43.860Z,8.69
2023-04-28T06:18:32.460Z,8.77
2023-04-28T06:21:21.315Z,8.84
2023-04-28T06:24:07.819Z,8.88
2023-04-28T06:26:55.556Z,8.90
2023-04-28T06:29:41.294Z,9.00
2023-04-28T06:32:27.291Z,9.11
2023-04-28T06:35:13.463Z,9.22
2023-04-28T06:37:59.994Z,9.22
2023-04-28T06:40:46.089Z,9.43
2023-04-28T06:43:33.353Z,9.49
2023-04-28T06:46:28.589Z,9.57
2023-04-28T06:49:14.834Z,9.53
2023-04-28T06:52:01.589Z,9.61
2023-04-28T06:54:49.325Z,9.66
2023-04-28T06:57:35.118Z,9.90
2023-04-28T07:00:22.355Z,10.08
2023-04-28T07:03:08.319Z,10.32
2023-04-28T07:05:54.948Z,10.59
2023-04-28T07:08:40.799Z,10.82
2023-04-28T07:11:26.836Z,11.00
2023-04-28T07:14:12.741Z,10.90
2023-04-28T07:16:59.702Z,10.86
2023-04-28T07:19:45.833Z,11.18
2023-04-28T07:22:31.619Z,11.39
2023-04-28T07:25:17.523Z,11.23
2023-04-28T07:28:03.638Z,11.38
2023-04-28T07:30:49.626Z,11.40
2023-04-28T07:33:37.299Z,11.36
2023-04-28T07:36:23.213Z,11.61
2023-04-28T07:39:09.412Z,11.90
2023-04-28T07:41:56.108Z,12.09
2023-04-28T07:44:42.281Z,12.15
2023-04-28T07:47:29.185Z,12.30
2023-04-28T07:50:17.245Z,12.20
2023-04-28T07:53:03.234Z,12.43
2023-04-28T07:55:48.976Z,12.47
2023-04-28T07:58:34.777Z,12.50
2023-04-28T08:01:20.529Z,12.60
2023-04-28T08:04:06.610Z,12.73
2023-04-28T08:06:54.261Z,12.86
2023-04-28T08:09:41.818Z,12.77
2023-04-28T08:12:28.225Z,13.00
2023-04-28T08:15:14.645Z,13.04
2023-04-28T08:18:01.562Z,13.03
2023-04-28T08:20:47.362Z,12.70
2023-04-28T08:23:34.538Z,12.54
2023-04-28T08:26:20.346Z,12.84
2023-04-28T08:29:06.428Z,12.56
2023-04-28T08:31:52.567Z,12.46
2023-04-28T08:34:38.571Z,12.59
2023-04-28T08:37:24.814Z,12.51
2023-04-28T08:40:12.248Z,12.70
2023-04-28T08:42:58.435Z,12.61
2023-04-28T08:45:45.476Z,12.83
2023-04-28T08:48:31.118Z,13.12
2023-04-28T08:51:17.150Z,12.97
2023-04-28T08:54:24.916Z,13.25
2023-04-28T08:57:11.723Z,13.05
2023-04-28T08:59:57.668Z,13.28
2023-04-28T09:02:43.646Z,13.32
2023-04-28T09:05:30.237Z,13.40
2023-04-28T09:08:16.471Z,13.30
2023-04-28T09:11:09.230Z,13.06
2023-04-28T09:13:56.505Z,13.02
2023-04-28T09:16:42.473Z,12.88
2023-04-28T09:19:33.800Z,12.89
2023-04-28T09:25:11.754Z,12.96
2023-04-28T09:27:57.583Z,12.92
2023-04-28T09:30:44.705Z,13.10
2023-04-28T09:33:30.524Z,13.15
2023-04-28T09:36:18.012Z,13.24
2023-04-28T09:39:04.049Z,13.24
2023-04-28T09:41:49.765Z,13.30
2023-04-28T09:44:35.714Z,13.24
2023-04-28T09:47:23.234Z,13.37
2023-04-28T09:50:12.444Z,13.27
2023-04-28T09:52:59.218Z,13.33
2023-04-28T09:55:45.518Z,13.45
2023-04-28T09:58:32.802Z,13.55
2023-04-28T10:01:18.602Z,13.61
2023-04-28T10:04:06.351Z,13.31
2023-04-28T10:06:53.159Z,13.18
2023-04-28T10:09:39.109Z,13.15
2023-04-28T10:12:25.403Z,13.06
2023-04-28T10:15:12.090Z,13.33
2023-04-28T10:17:58.305Z,13.38
2023-04-28T10:20:47.009Z,13.32
2023-04-28T10:23:39.124Z,13.46
2023-04-28T10:26:25.606Z,13.45
2023-04-28T10:29:11.813Z,13.62
2023-04-28T10:32:16.870Z,13.70
2023-04-28T10:35:24.580Z,13.60
2023-04-28T10:38:12.556Z,13.55
2023-04-28T10:41:02.395Z,13.85
2023-04-28T10:43:48.135Z,13.94
2023-04-28T10:46:43.214Z,14.00
2023-04-28T10:49:43.826Z,14.09
2023-04-28T10:52:48.618Z,14.27
2023-04-28T10:55:37.182Z,14.57
2023-04-28T10:58:33.391Z,14.82
2023-04-28T11:01:25.696Z,15.09
2023-04-28T11:04:13.379Z,15.12
2023-04-28T11:07:10.359Z,15.62
2023-04-28T11:09:56.265Z,15.73
2023-04-28T11:12:57.122Z,15.66
2023-04-28T11:15:44.304Z,15.82
2023-04-28T11:18:30.069Z,15.92
2023-04-28T11:21:15.713Z,15.87
2023-04-28T11:24:01.611Z,15.97
2023-04-28T11:26:47.436Z,15.82
2023-04-28T11:29:34.235Z,16.02
2023-04-28T11:32:27.064Z,16.02
2023-04-28T11:35:15.588Z,16.02
2023-04-28T11:38:04.843Z,15.80
2023-04-28T11:40:57.530Z,15.89
2023-04-28T11:43:47.336Z,15.78
2023-04-28T11:46:33.462Z,15.53
2023-04-28T11:49:21.162Z,15.86
2023-04-28T11:52:07.279Z,15.58
2023-04-28T11:54:57.802Z,15.37
2023-04-28T11:57:43.556Z,15.15
2023-04-28T12:00:29.963Z,15.24
2023-04-28T12:03:15.928Z,15.35
2023-04-28T12:06:03.643Z,15.09
2023-04-28T12:08:49.684Z,15.14
2023-04-28T12:11:35.584Z,15.08
2023-04-28T12:14:21.262Z,14.95
2023-04-28T12:17:07.044Z,14.84
2023-04-28T12:19:52.761Z,14.81
2023-04-28T12:22:49.614Z,14.78
2023-04-28T12:25:43.648Z,14.78
2023-04-28T12:28:37.734Z,14.82
2023-04-28T12:31:23.804Z,14.74
2023-04-28T12:34:10.082Z,14.65
2023-04-28T12:36:56.052Z,14.57
2023-04-28T12:39:43.546Z,14.81
2023-04-28T12:42:30.047Z,14.59
2023-04-28T12:45:16.667Z,14.90
2023-04-28T12:48:02.539Z,14.73
2023-04-28T12:50:48.472Z,14.86
2023-04-28T12:53:34.470Z,14.92
2023-04-28T12:56:21.612Z,14.98
2023-04-28T12:59:07.535Z,15.13
2023-04-28T13:01:53.390Z,14.92
2023-04-28T13:04:39.838Z,15.00
2023-04-28T13:07:25.967Z,15.00
2023-04-28T13:10:12.833Z,15.03
2023-04-28T13:13:00.287Z,15.03
2023-04-28T13:15:46.379Z,15.06
2023-04-28T13:18:32.694Z,15.00
2023-04-28T13:21:18.531Z,14.88
2023-04-28T13:24:05.430Z,14.89
2023-04-28T13:26:52.164Z,14.80
2023-04-28T13:29:40.094Z,14.86
2023-04-28T13:32:27.874Z,14.93
2023-04-28T13:35:14.375Z,15.05
2023-04-28T13:38:02.447Z,15.11
2023-04-28T13:40:48.818Z,15.25
2023-04-28T13:43:34.626Z,15.04
2023-04-28T13:46:21.849Z,14.86
2023-04-28T13:49:08.338Z,14.75
2023-04-28T13:51:54.596Z,14.63
2023-04-28T13:54:40.357Z,14.80
2023-04-28T13:57:26.177Z,14.99
2023-04-28T14:00:12.981Z,14.91
2023-04-28T14:03:00.387Z,14.98
2023-04-28T14:05:49.724Z,15.32
2023-04-28T14:08:38.408Z,15.05
2023-04-28T14:11:24.283Z,14.76
2023-04-28T14:14:09.949Z,14.71
2023-04-28T14:16:55.805Z,14.56
2023-04-28T14:19:43.252Z,14.51
2023-04-28T14:22:29.216Z,14.67
2023-04-28T14:25:15.128Z,14.54
2023-04-28T14:28:00.713Z,14.25
2023-04-28T14:30:47.185Z,14.26
2023-04-28T14:33:33.319Z,14.30
2023-04-28T14:36:20.616Z,14.49
2023-04-28T14:39:06.737Z,14.70
2023-04-28T14:41:52.619Z,14.66
2023-04-28T14:44:38.564Z,14.55
2023-04-28T14:47:24.708Z,14.66
2023-04-28T14:50:13.193Z,14.45
2023-04-28T14:53:05.746Z,14.64
2023-04-28T14:55:51.860Z,14.58
2023-04-28T14:58:37.454Z,14.66
2023-04-28T15:01:23.259Z,14.56
2023-04-28T15:04:10.263Z,14.65
2023-04-28T15:06:56.560Z,14.80
2023-04-28T15:09:44.048Z,14.87
2023-04-28T15:12:30.754Z,14.81
2023-04-28T15:15:17.188Z,15.06
2023-04-28T15:18:04.083Z,15.13
2023-04-28T15:20:50.125Z,15.13
2023-04-28T15:23:36.649Z,15.21
2023-04-28T15:26:24.498Z,15.28
2023-04-28T15:29:10.487Z,15.11
2023-04-28T15:31:57.143Z,14.91
2023-04-28T15:34:44.072Z,14.77
2023-04-28T15:37:40.622Z,14.59
2023-04-28T15:40:26.618Z,14.39
2023-04-28T15:43:14.197Z,14.24
2023-04-28T15:46:01.011Z,14.21
2023-04-28T15:48:47.499Z,14.07
2023-04-28T15:51:33.536Z,14.03
2023-04-28T15:54:19.342Z,13.78
2023-04-28T15:57:05.422Z,13.67
2023-04-28T15:59:52.558Z,13.62
2023-04-28T16:02:39.141Z,13.47
2023-04-28T16:05:25.413Z,13.53
2023-04-28T16:08:11.292Z,13.51
2023-04-28T16:10:57.953Z,13.33
2023-04-28T16:13:44.688Z,13.25
2023-04-28T16:16:31.950Z,13.16
2023-04-28T16:19:17.627Z,13.01
2023-04-28T16:22:03.591Z,13.04
2023-04-28T16:24:50.084Z,13.02
2023-04-28T16:27:36.699Z,13.04
2023-04-28T16:30:22.848Z,13.08
2023-04-28T16:33:10.579Z,13.12
2023-04-28T16:35:59.408Z,13.10
2023-04-28T16:38:46.655Z,13.02
2023-04-28T16:41:32.538Z,12.90
2023-04-28T16:44:19.223Z,12.82
2023-04-28T16:47:05.451Z,12.81
2023-04-28T16:49:53.481Z,12.84
2023-04-28T16:52:39.804Z,12.78
2023-04-28T16:55:26.175Z,12.75
2023-04-28T16:58:12.116Z,12.66
2023-04-28T17:00:58.411Z,12.69
2023-04-28T17:03:44.762Z,12.70
2023-04-28T17:06:32.575Z,12.73
2023-04-28T17:09:19.061Z,12.71
2023-04-28T17:12:05.607Z,12.75
2023-04-28T17:14:52.724Z,12.78
2023-04-28T17:17:38.840Z,12.72
2023-04-28T17:20:24.565Z,12.68
2023-04-28T17:23:12.394Z,12.76
2023-04-28T17:25:58.365Z,12.78
2023-04-28T17:28:44.426Z,12.81
2023-04-28T17:31:30.566Z,12.79
2023-04-28T17:34:17.155Z,12.76
2023-04-28T17:37:03.171Z,12.82
2023-04-28T17:39:51.647Z,12.79
2023-04-28T17:42:37.867Z,12.85
2023-04-28T17:45:24.795Z,12.86
2023-04-28T17:48:10.565Z,12.85
2023-04-28T17:50:56.624Z,12.89
2023-04-28T17:53:42.373Z,12.86
2023-04-28T17:56:30.181Z,12.82
2023-04-28T17:59:16.831Z,12.83
2023-04-28T18:02:02.707Z,12.72
2023-04-28T18:04:50.713Z,12.71
2023-04-28T18:07:36.845Z,12.67
2023-04-28T18:10:22.575Z,12.66
2023-04-28T18:13:10.431Z,12.70
2023-04-28T18:15:56.853Z,12.67
2023-04-28T18:18:42.990Z,12.66
2023-04-28T18:21:29.231Z,12.60
2023-04-28T18:24:15.287Z,12.62
2023-04-28T18:27:02.104Z,12.60
2023-04-28T18:29:49.246Z,12.61
2023-04-28T18:32:35.688Z,12.61
2023-04-28T18:35:21.399Z,12.55
2023-04-28T18:38:07.279Z,12.55
2023-04-28T18:40:53.071Z,12.47
2023-04-28T18:43:39.211Z,12.50
2023-04-28T18:46:27.046Z,12.44
2023-04-28T18:49:13.189Z,12.42
2023-04-28T18:52:02.351Z,12.41
2023-04-28T18:54:48.271Z,12.31
2023-04-28T18:57:34.350Z,12.26
2023-04-28T19:00:20.717Z,12.28
2023-04-28T19:03:07.903Z,12.23
2023-04-28T19:05:54.180Z,12.26
2023-04-28T19:08:40.050Z,12.21
2023-04-28T19:11:25.985Z,12.19
2023-04-28T19:14:11.664Z,12.14
2023-04-28T19:16:57.878Z,12.06
2023-04-28T19:19:45.680Z,11.99
2023-04-28T19:22:35.766Z,12.00
2023-04-28T19:25:21.522Z,11.94
2023-04-28T19:28:08.209Z,11.94
2023-04-28T19:30:54.307Z,11.99
2023-04-28T19:33:41.273Z,11.93
2023-04-28T19:36:28.445Z,11.94
2023-04-28T19:39:15.164Z,11.97
2023-04-28T19:42:01.114Z,11.97
2023-04-28T19:44:47.146Z,11.99
2023-04-28T19:47:33.995Z,12.00
2023-04-28T19:50:19.986Z,12.02
2023-04-28T19:53:07.966Z,12.05
2023-04-28T19:55:54.676Z,12.09
2023-04-28T19:58:40.957Z,12.12
2023-04-28T20:01:27.276Z,12.14
2023-04-28T20:04:14.264Z,12.18
2023-04-28T20:07:00.031Z,12.19
2023-04-28T20:09:47.139Z,12.22
2023-04-28T20:12:33.138Z,12.23
2023-04-28T20:15:19.399Z,12.25
2023-04-28T20:18:05.697Z,12.28
2023-04-28T20:20:53.044Z,12.28
2023-04-28T20:23:38.750Z,12.29
2023-04-28T20:26:25.900Z,12.31
2023-04-28T20:29:11.813Z,12.32
2023-04-28T20:31:58.662Z,12.34
2023-04-28T20:34:44.905Z,12.34
2023-04-28T20:37:32.157Z,12.35
2023-04-28T20:40:18.568Z,12.39
2023-04-28T20:43:05.951Z,12.41
2023-04-28T20:45:51.995Z,12.44
2023-04-28T20:48:38.330Z,12.43
2023-04-28T20:51:24.605Z,12.46
2023-04-28T20:54:10.402Z,12.48
2023-04-28T20:56:56.679Z,12.49
2023-04-28T20:59:44.110Z,12.50
2023-04-28T21:02:30.064Z,12.51
2023-04-28T21:05:17.455Z,12.53
2023-04-28T21:08:03.614Z,12.53
2023-04-28T21:10:49.668Z,12.56
2023-04-28T21:13:35.590Z,12.56
2023-04-28T21:16:22.649Z,12.56
2023-04-28T21:19:08.782Z,12.58
2023-04-28T21:21:54.598Z,12.58
2023-04-28T21:24:40.545Z,12.57
2023-04-28T21:27:26.652Z,12.55
2023-04-28T21:30:14.542Z,12.56
2023-04-28T21:33:01.794Z,12.56
2023-04-28T21:35:48.343Z,12.57
2023-04-28T21:38:34.647Z,12.55
2023-04-28T21:41:21.211Z,12.56
2023-04-28T21:44:07.275Z,12.57
2023-04-28T21:46:53.115Z,12.57
2023-04-28T21:49:40.207Z,12.57
2023-04-28T21:52:26.089Z,12.58
2023-04-28T21:55:11.897Z,12.56
2023-04-28T21:58:00.206Z,12.56
2023-04-28T22:00:47.005Z,12.54
2023-04-28T22:03:34.927Z,12.53
2023-04-28T22:06:22.234Z,12.54
2023-04-28T22:09:07.975Z,12.51
2023-04-28T22:11:54.246Z,12.52
2023-04-28T22:14:41.601Z,12.51
2023-04-28T22:17:28.373Z,12.50
2023-04-28T22:20:14.947Z,12.46
2023-04-28T22:23:02.073Z,12.47
2023-04-28T22:25:47.912Z,12.43
2023-04-28T22:28:33.976Z,12.43
2023-04-28T22:31:20.187Z,12.43
2023-04-28T22:34:09.734Z,12.44
2023-04-28T22:36:55.366Z,12.41
2023-04-28T22:39:42.337Z,12.36
2023-04-28T22:42:28.586Z,12.39
2023-04-28T22:45:14.582Z,12.39
2023-04-28T22:48:01.486Z,12.36
2023-04-28T22:50:47.583Z,12.37
2023-04-28T22:53:33.431Z,12.34
2023-04-28T22:56:20.416Z,12.33
2023-04-28T22:59:06.160Z,12.33
2023-04-28T23:01:53.177Z,12.33
2023-04-28T23:04:39.336Z,12.29
2023-04-28T23:07:25.353Z,12.26
2023-04-28T23:10:14.249Z,12.26
2023-04-28T23:13:01.728Z,12.23
2023-04-28T23:15:47.611Z,12.22
2023-04-28T23:18:33.751Z,12.20
2023-04-28T23:21:19.812Z,12.22
2023-04-28T23:24:05.766Z,12.21
2023-04-28T23:26:51.712Z,12.16
2023-04-28T23:29:38.720Z,12.14
2023-04-28T23:32:24.673Z,12.13
2023-04-28T23:35:10.575Z,12.12
2023-04-28T23:37:56.392Z,12.13
2023-04-28T23:40:42.624Z,12.13
2023-04-28T23:43:28.908Z,12.09
2023-04-28T23:46:16.202Z,12.06
2023-04-28T23:49:02.379Z,11.99
2023-04-28T23:51:48.120Z,12.03
2023-04-28T23:54:33.990Z,11.98
2023-04-28T23:57:19.965Z,12.02
